METAR Data
IDs: Format: Raw Decoded Include TAF

Data at: 0914 UTC 13 Aug 2022

METAR for:KPHL (Philadelphia Intl, PA, US)
Text:KPHL 130854Z 35009KT 10SM FEW250 19/09 A3010 RMK AO2 SLP191 T01940089 53010 $
Temperature: 19.4°C ( 67°F)
Dewpoint: 8.9°C ( 48°F) [RH = 51%]
Pressure (altimeter):30.10 inches Hg (1019.4 mb) [Sea level pressure: 1019.1 mb]
Winds:from the N (350 degrees) at 10 MPH (9 knots; 4.6 m/s)
Visibility:10 or more sm (16+ km)
Ceiling:at least 12,000 feet AGL
Clouds: few clouds at 25000 feet AGL
QC Flag:SOME DATA ABOVE MAY BE INACCURATE!!!"$" is an indication the sensor requires maintenance.